ドーハ の空港の天気 - METARとTAF

ドーハ国際空港 ( OTBD / DOH ) - カタール ドーハ
飛行場実況気象(Metar)
観測時間05/28 04:30 AST (05/28 01:30 UTC)
風向・風速南 2m/s
視程10km以上
天気現象
なし
気温29℃
湿度79%
気圧1005hPa
METAROTBD 280130Z AUTO 19003KT 140V230 CAVOK 29/25 Q1005 NOSIG
過去の天気等 Google飛行場航空写真 Wunderground天気予報

過去48時間のMETAR

飛行場予報(TAF)
発表時間: 5/28 02:06 AST (5/27 23:06 UTC)
予報対象時間: 28日3時 AST ~ 29日9時 AST
風向・風速西 3m/s
視程8000m
なし
28日3時 AST ~ 28日7時 AST に 確率 40% で一時的に
風向・風速不定 1m/s
視程5000m
天気現象煙霧
28日8時 AST ~ 28日10時 AST に徐々に
風向・風速東 5m/s
TAF OTBD 272306Z 2800/2906 27005KT 8000 NSC
PROB40 TEMPO 2800/2804 VRB02KT 5000 HZ
BECMG 2805/2807 10010KT